sensor_id;sensor_type;location;lat;lon;timestamp;P1;durP1;ratioP1;P2;durP2;ratioP2
51660;SDS011;37741;49.748;8.490;2022-09-03T00:00:13;2.28;;;0.95;;
51660;SDS011;37741;49.748;8.490;2022-09-03T00:02:42;2.15;;;0.98;;
51660;SDS011;37741;49.748;8.490;2022-09-03T00:05:15;3.60;;;1.08;;
51660;SDS011;37741;49.748;8.490;2022-09-03T00:11:02;2.58;;;0.80;;
51660;SDS011;37741;49.748;8.490;2022-09-03T00:14:02;2.08;;;1.10;;
51660;SDS011;37741;49.748;8.490;2022-09-03T00:16:30;1.90;;;0.90;;
51660;SDS011;37741;49.748;8.490;2022-09-03T00:19:10;3.13;;;1.10;;
51660;SDS011;37741;49.748;8.490;2022-09-03T00:21:42;2.22;;;0.80;;
51660;SDS011;37741;49.748;8.490;2022-09-03T00:24:12;2.42;;;1.10;;
51660;SDS011;37741;49.748;8.490;2022-09-03T00:26:42;2.58;;;1.08;;
51660;SDS011;37741;49.748;8.490;2022-09-03T00:29:32;3.72;;;1.48;;
51660;SDS011;37741;49.748;8.490;2022-09-03T00:32:03;2.53;;;1.10;;
51660;SDS011;37741;49.748;8.490;2022-09-03T00:34:41;2.03;;;1.00;;
51660;SDS011;37741;49.748;8.490;2022-09-03T00:37:10;2.05;;;0.80;;
51660;SDS011;37741;49.748;8.490;2022-09-03T00:39:36;1.63;;;0.80;;
51660;SDS011;37741;49.748;8.490;2022-09-03T00:52:59;3.63;;;0.85;;
51660;SDS011;37741;49.748;8.490;2022-09-03T01:00:56;2.20;;;0.90;;
51660;SDS011;37741;49.748;8.490;2022-09-03T01:06:18;1.90;;;0.75;;
51660;SDS011;37741;49.748;8.490;2022-09-03T01:09:08;3.35;;;1.05;;
51660;SDS011;37741;49.748;8.490;2022-09-03T01:14:28;2.83;;;1.00;;
51660;SDS011;37741;49.748;8.490;2022-09-03T01:30:10;1.92;;;1.15;;
51660;SDS011;37741;49.748;8.490;2022-09-03T01:38:55;2.28;;;0.95;;
51660;SDS011;37741;49.748;8.490;2022-09-03T01:53:08;2.25;;;1.10;;
51660;SDS011;37741;49.748;8.490;2022-09-03T01:58:46;1.83;;;0.90;;
51660;SDS011;37741;49.748;8.490;2022-09-03T02:01:34;1.50;;;0.80;;
51660;SDS011;37741;49.748;8.490;2022-09-03T02:04:14;1.90;;;1.00;;
51660;SDS011;37741;49.748;8.490;2022-09-03T02:06:43;3.25;;;1.00;;
51660;SDS011;37741;49.748;8.490;2022-09-03T02:09:12;1.85;;;1.10;;
51660;SDS011;37741;49.748;8.490;2022-09-03T02:11:39;2.22;;;1.05;;
51660;SDS011;37741;49.748;8.490;2022-09-03T02:14:06;2.03;;;0.98;;
51660;SDS011;37741;49.748;8.490;2022-09-03T02:16:32;2.55;;;1.08;;
51660;SDS011;37741;49.748;8.490;2022-09-03T02:19:03;1.80;;;0.98;;
51660;SDS011;37741;49.748;8.490;2022-09-03T02:21:35;1.92;;;0.93;;
51660;SDS011;37741;49.748;8.490;2022-09-03T02:24:04;1.58;;;0.90;;
51660;SDS011;37741;49.748;8.490;2022-09-03T02:26:31;1.75;;;0.93;;
51660;SDS011;37741;49.748;8.490;2022-09-03T02:28:58;2.25;;;1.10;;
51660;SDS011;37741;49.748;8.490;2022-09-03T02:31:25;2.30;;;0.88;;
51660;SDS011;37741;49.748;8.490;2022-09-03T02:33:52;2.08;;;1.00;;
51660;SDS011;37741;49.748;8.490;2022-09-03T02:36:18;2.03;;;0.82;;
51660;SDS011;37741;49.748;8.490;2022-09-03T02:38:48;1.70;;;0.80;;
51660;SDS011;37741;49.748;8.490;2022-09-03T02:41:14;1.60;;;0.80;;
51660;SDS011;37741;49.748;8.490;2022-09-03T02:46:49;2.30;;;0.95;;
51660;SDS011;37741;49.748;8.490;2022-09-03T02:49:15;2.40;;;0.90;;
51660;SDS011;37741;49.748;8.490;2022-09-03T02:51:41;2.15;;;0.95;;
51660;SDS011;37741;49.748;8.490;2022-09-03T02:54:09;1.92;;;0.80;;
51660;SDS011;37741;49.748;8.490;2022-09-03T02:56:36;2.20;;;0.70;;
51660;SDS011;37741;49.748;8.490;2022-09-03T02:59:02;2.33;;;1.00;;
51660;SDS011;37741;49.748;8.490;2022-09-03T03:01:29;1.70;;;0.75;;
51660;SDS011;37741;49.748;8.490;2022-09-03T03:03:55;1.85;;;0.98;;
51660;SDS011;37741;49.748;8.490;2022-09-03T03:06:21;1.63;;;0.80;;
51660;SDS011;37741;49.748;8.490;2022-09-03T03:08:47;1.65;;;0.98;;
51660;SDS011;37741;49.748;8.490;2022-09-03T03:11:14;3.00;;;0.95;;
51660;SDS011;37741;49.748;8.490;2022-09-03T03:13:44;2.03;;;1.05;;
51660;SDS011;37741;49.748;8.490;2022-09-03T03:16:10;2.05;;;0.90;;
51660;SDS011;37741;49.748;8.490;2022-09-03T03:18:37;1.52;;;0.73;;
51660;SDS011;37741;49.748;8.490;2022-09-03T03:21:07;3.00;;;1.20;;
51660;SDS011;37741;49.748;8.490;2022-09-03T03:23:35;1.40;;;0.70;;
51660;SDS011;37741;49.748;8.490;2022-09-03T03:26:02;1.77;;;0.82;;
51660;SDS011;37741;49.748;8.490;2022-09-03T03:28:29;1.80;;;1.20;;
51660;SDS011;37741;49.748;8.490;2022-09-03T03:30:57;1.40;;;0.70;;
51660;SDS011;37741;49.748;8.490;2022-09-03T03:33:33;1.60;;;0.80;;
51660;SDS011;37741;49.748;8.490;2022-09-03T03:36:06;1.73;;;0.70;;
51660;SDS011;37741;49.748;8.490;2022-09-03T03:38:38;1.73;;;0.63;;
51660;SDS011;37741;49.748;8.490;2022-09-03T03:41:10;1.70;;;0.88;;
51660;SDS011;37741;49.748;8.490;2022-09-03T03:43:41;1.95;;;0.80;;
51660;SDS011;37741;49.748;8.490;2022-09-03T03:46:07;1.73;;;0.90;;
51660;SDS011;37741;49.748;8.490;2022-09-03T03:48:34;3.50;;;1.23;;
51660;SDS011;37741;49.748;8.490;2022-09-03T03:51:01;1.88;;;1.00;;
51660;SDS011;37741;49.748;8.490;2022-09-03T03:53:29;1.52;;;0.75;;
51660;SDS011;37741;49.748;8.490;2022-09-03T03:55:56;2.05;;;1.00;;
51660;SDS011;37741;49.748;8.490;2022-09-03T03:58:23;1.83;;;0.80;;
51660;SDS011;37741;49.748;8.490;2022-09-03T04:00:52;1.27;;;0.68;;
51660;SDS011;37741;49.748;8.490;2022-09-03T04:03:18;2.03;;;0.80;;
51660;SDS011;37741;49.748;8.490;2022-09-03T04:05:53;1.83;;;0.80;;
51660;SDS011;37741;49.748;8.490;2022-09-03T04:08:23;1.63;;;0.88;;
51660;SDS011;37741;49.748;8.490;2022-09-03T04:10:49;2.65;;;1.10;;
51660;SDS011;37741;49.748;8.490;2022-09-03T04:13:15;2.45;;;1.08;;
51660;SDS011;37741;49.748;8.490;2022-09-03T04:15:41;2.05;;;0.90;;
51660;SDS011;37741;49.748;8.490;2022-09-03T04:18:07;2.65;;;1.02;;
51660;SDS011;37741;49.748;8.490;2022-09-03T04:20:36;1.95;;;1.10;;
51660;SDS011;37741;49.748;8.490;2022-09-03T04:23:02;1.60;;;0.70;;
51660;SDS011;37741;49.748;8.490;2022-09-03T04:25:30;1.77;;;0.98;;
51660;SDS011;37741;49.748;8.490;2022-09-03T04:27:56;3.33;;;1.20;;
51660;SDS011;37741;49.748;8.490;2022-09-03T04:30:22;2.58;;;1.20;;
51660;SDS011;37741;49.748;8.490;2022-09-03T04:32:50;2.63;;;1.05;;
51660;SDS011;37741;49.748;8.490;2022-09-03T04:35:20;1.92;;;0.98;;
51660;SDS011;37741;49.748;8.490;2022-09-03T04:37:46;3.25;;;1.05;;
51660;SDS011;37741;49.748;8.490;2022-09-03T04:40:12;3.20;;;1.02;;
51660;SDS011;37741;49.748;8.490;2022-09-03T04:42:38;2.67;;;1.17;;
51660;SDS011;37741;49.748;8.490;2022-09-03T04:45:04;1.75;;;0.90;;
51660;SDS011;37741;49.748;8.490;2022-09-03T04:47:30;2.33;;;0.93;;
51660;SDS011;37741;49.748;8.490;2022-09-03T04:49:56;1.90;;;1.00;;
51660;SDS011;37741;49.748;8.490;2022-09-03T04:52:22;2.67;;;0.98;;
51660;SDS011;37741;49.748;8.490;2022-09-03T04:54:48;1.45;;;0.85;;
51660;SDS011;37741;49.748;8.490;2022-09-03T04:57:14;2.42;;;1.20;;
51660;SDS011;37741;49.748;8.490;2022-09-03T04:59:39;2.60;;;1.25;;
51660;SDS011;37741;49.748;8.490;2022-09-03T05:02:06;2.92;;;1.10;;
51660;SDS011;37741;49.748;8.490;2022-09-03T05:04:33;1.83;;;0.80;;
51660;SDS011;37741;49.748;8.490;2022-09-03T05:06:59;2.05;;;1.00;;
51660;SDS011;37741;49.748;8.490;2022-09-03T05:09:25;3.67;;;1.10;;
51660;SDS011;37741;49.748;8.490;2022-09-03T05:11:50;2.35;;;0.98;;
51660;SDS011;37741;49.748;8.490;2022-09-03T05:14:16;2.15;;;0.95;;
51660;SDS011;37741;49.748;8.490;2022-09-03T05:16:42;2.83;;;1.02;;
51660;SDS011;37741;49.748;8.490;2022-09-03T05:19:07;4.57;;;0.95;;
51660;SDS011;37741;49.748;8.490;2022-09-03T05:21:34;2.38;;;1.00;;
51660;SDS011;37741;49.748;8.490;2022-09-03T05:24:00;1.40;;;0.70;;
51660;SDS011;37741;49.748;8.490;2022-09-03T05:26:27;2.33;;;0.90;;
51660;SDS011;37741;49.748;8.490;2022-09-03T05:28:56;4.20;;;1.20;;
51660;SDS011;37741;49.748;8.490;2022-09-03T05:31:27;2.65;;;1.08;;
51660;SDS011;37741;49.748;8.490;2022-09-03T05:33:56;2.35;;;1.17;;
51660;SDS011;37741;49.748;8.490;2022-09-03T05:36:24;2.22;;;1.02;;
51660;SDS011;37741;49.748;8.490;2022-09-03T05:38:51;2.05;;;0.90;;
51660;SDS011;37741;49.748;8.490;2022-09-03T05:41:20;2.50;;;0.90;;
51660;SDS011;37741;49.748;8.490;2022-09-03T05:43:49;1.90;;;0.98;;
51660;SDS011;37741;49.748;8.490;2022-09-03T05:46:20;2.67;;;0.80;;
51660;SDS011;37741;49.748;8.490;2022-09-03T05:48:55;1.65;;;0.75;;
51660;SDS011;37741;49.748;8.490;2022-09-03T05:51:30;2.75;;;1.00;;
51660;SDS011;37741;49.748;8.490;2022-09-03T05:54:03;2.33;;;0.82;;
51660;SDS011;37741;49.748;8.490;2022-09-03T05:56:30;2.03;;;1.00;;
51660;SDS011;37741;49.748;8.490;2022-09-03T05:58:58;2.50;;;0.95;;
51660;SDS011;37741;49.748;8.490;2022-09-03T06:01:29;1.90;;;0.80;;
51660;SDS011;37741;49.748;8.490;2022-09-03T06:04:00;3.65;;;1.20;;
51660;SDS011;37741;49.748;8.490;2022-09-03T06:06:28;3.15;;;1.20;;
51660;SDS011;37741;49.748;8.490;2022-09-03T06:08:58;1.42;;;0.70;;
51660;SDS011;37741;49.748;8.490;2022-09-03T06:11:26;2.38;;;1.00;;
51660;SDS011;37741;49.748;8.490;2022-09-03T06:13:59;3.17;;;0.90;;
51660;SDS011;37741;49.748;8.490;2022-09-03T06:16:26;1.95;;;0.90;;
51660;SDS011;37741;49.748;8.490;2022-09-03T06:18:53;3.10;;;1.10;;
51660;SDS011;37741;49.748;8.490;2022-09-03T06:21:19;1.83;;;0.90;;
51660;SDS011;37741;49.748;8.490;2022-09-03T06:23:48;1.60;;;0.95;;
51660;SDS011;37741;49.748;8.490;2022-09-03T06:26:20;3.13;;;1.10;;
51660;SDS011;37741;49.748;8.490;2022-09-03T06:28:47;1.98;;;1.00;;
51660;SDS011;37741;49.748;8.490;2022-09-03T06:31:15;3.33;;;0.90;;
51660;SDS011;37741;49.748;8.490;2022-09-03T06:33:43;3.55;;;0.90;;
51660;SDS011;37741;49.748;8.490;2022-09-03T06:36:10;1.67;;;0.98;;
51660;SDS011;37741;49.748;8.490;2022-09-03T06:38:37;2.17;;;1.20;;
51660;SDS011;37741;49.748;8.490;2022-09-03T06:41:05;2.45;;;1.38;;
51660;SDS011;37741;49.748;8.490;2022-09-03T06:43:36;1.80;;;0.90;;
51660;SDS011;37741;49.748;8.490;2022-09-03T06:46:04;3.17;;;1.00;;
51660;SDS011;37741;49.748;8.490;2022-09-03T06:48:34;2.03;;;1.08;;
51660;SDS011;37741;49.748;8.490;2022-09-03T06:51:04;1.70;;;0.95;;
51660;SDS011;37741;49.748;8.490;2022-09-03T06:53:31;4.25;;;1.13;;
51660;SDS011;37741;49.748;8.490;2022-09-03T06:56:00;2.15;;;1.08;;
51660;SDS011;37741;49.748;8.490;2022-09-03T06:58:28;2.42;;;0.95;;
51660;SDS011;37741;49.748;8.490;2022-09-03T07:01:04;1.83;;;0.85;;
51660;SDS011;37741;49.748;8.490;2022-09-03T07:03:31;1.98;;;0.98;;
51660;SDS011;37741;49.748;8.490;2022-09-03T07:06:01;3.25;;;1.30;;
51660;SDS011;37741;49.748;8.490;2022-09-03T07:08:29;2.10;;;1.00;;
51660;SDS011;37741;49.748;8.490;2022-09-03T07:10:56;2.50;;;1.08;;
51660;SDS011;37741;49.748;8.490;2022-09-03T07:13:24;1.92;;;1.02;;
51660;SDS011;37741;49.748;8.490;2022-09-03T07:16:03;1.85;;;0.95;;
51660;SDS011;37741;49.748;8.490;2022-09-03T07:18:31;2.28;;;0.93;;
51660;SDS011;37741;49.748;8.490;2022-09-03T07:20:58;2.60;;;1.00;;
51660;SDS011;37741;49.748;8.490;2022-09-03T07:23:24;1.85;;;1.00;;
51660;SDS011;37741;49.748;8.490;2022-09-03T07:25:57;2.78;;;1.20;;
51660;SDS011;37741;49.748;8.490;2022-09-03T07:28:27;2.47;;;1.10;;
51660;SDS011;37741;49.748;8.490;2022-09-03T07:30:54;2.90;;;1.30;;
51660;SDS011;37741;49.748;8.490;2022-09-03T07:33:25;3.03;;;1.20;;
51660;SDS011;37741;49.748;8.490;2022-09-03T07:35:53;2.47;;;1.00;;
51660;SDS011;37741;49.748;8.490;2022-09-03T07:38:19;2.53;;;1.10;;
51660;SDS011;37741;49.748;8.490;2022-09-03T07:40:44;3.35;;;1.02;;
51660;SDS011;37741;49.748;8.490;2022-09-03T07:43:11;3.85;;;1.38;;
51660;SDS011;37741;49.748;8.490;2022-09-03T07:45:37;2.90;;;1.23;;
51660;SDS011;37741;49.748;8.490;2022-09-03T07:48:03;3.85;;;1.15;;
51660;SDS011;37741;49.748;8.490;2022-09-03T07:50:29;4.50;;;1.58;;
51660;SDS011;37741;49.748;8.490;2022-09-03T07:53:01;2.15;;;1.30;;
51660;SDS011;37741;49.748;8.490;2022-09-03T07:55:27;3.17;;;1.27;;
51660;SDS011;37741;49.748;8.490;2022-09-03T07:57:56;2.15;;;1.25;;
51660;SDS011;37741;49.748;8.490;2022-09-03T08:00:23;2.33;;;1.10;;
51660;SDS011;37741;49.748;8.490;2022-09-03T08:02:52;2.10;;;1.02;;
51660;SDS011;37741;49.748;8.490;2022-09-03T08:05:18;3.17;;;1.20;;
51660;SDS011;37741;49.748;8.490;2022-09-03T08:07:45;2.40;;;1.13;;
51660;SDS011;37741;49.748;8.490;2022-09-03T08:10:12;1.95;;;1.13;;
51660;SDS011;37741;49.748;8.490;2022-09-03T08:12:38;2.50;;;0.98;;
51660;SDS011;37741;49.748;8.490;2022-09-03T08:15:04;2.33;;;1.05;;
51660;SDS011;37741;49.748;8.490;2022-09-03T08:17:30;2.72;;;1.23;;
51660;SDS011;37741;49.748;8.490;2022-09-03T08:19:56;2.08;;;1.13;;
51660;SDS011;37741;49.748;8.490;2022-09-03T08:22:22;4.03;;;1.25;;
51660;SDS011;37741;49.748;8.490;2022-09-03T08:24:49;2.70;;;1.20;;
51660;SDS011;37741;49.748;8.490;2022-09-03T08:27:15;3.42;;;1.00;;
51660;SDS011;37741;49.748;8.490;2022-09-03T08:29:40;1.85;;;0.90;;
51660;SDS011;37741;49.748;8.490;2022-09-03T08:32:06;2.03;;;1.30;;
51660;SDS011;37741;49.748;8.490;2022-09-03T08:34:31;2.97;;;1.15;;
51660;SDS011;37741;49.748;8.490;2022-09-03T08:36:57;2.78;;;1.23;;
51660;SDS011;37741;49.748;8.490;2022-09-03T08:39:25;2.75;;;1.15;;
51660;SDS011;37741;49.748;8.490;2022-09-03T08:44:39;2.17;;;1.17;;
51660;SDS011;37741;49.748;8.490;2022-09-03T08:47:14;2.92;;;1.38;;
51660;SDS011;37741;49.748;8.490;2022-09-03T08:52:22;3.25;;;1.75;;
51660;SDS011;37741;49.748;8.490;2022-09-03T08:58:01;3.63;;;1.13;;
51660;SDS011;37741;49.748;8.490;2022-09-03T09:00:38;3.33;;;1.35;;
51660;SDS011;37741;49.748;8.490;2022-09-03T09:09:09;2.60;;;1.33;;
51660;SDS011;37741;49.748;8.490;2022-09-03T09:11:52;4.95;;;1.50;;
51660;SDS011;37741;49.748;8.490;2022-09-03T09:17:13;4.10;;;1.20;;
51660;SDS011;37741;49.748;8.490;2022-09-03T09:22:29;3.83;;;1.42;;
51660;SDS011;37741;49.748;8.490;2022-09-03T09:25:01;2.13;;;1.10;;
51660;SDS011;37741;49.748;8.490;2022-09-03T09:27:33;3.33;;;1.33;;
51660;SDS011;37741;49.748;8.490;2022-09-03T09:29:59;3.10;;;1.38;;
51660;SDS011;37741;49.748;8.490;2022-09-03T09:32:28;4.95;;;1.20;;
51660;SDS011;37741;49.748;8.490;2022-09-03T09:34:55;2.70;;;1.27;;
51660;SDS011;37741;49.748;8.490;2022-09-03T09:37:20;3.00;;;1.17;;
51660;SDS011;37741;49.748;8.490;2022-09-03T09:39:56;2.60;;;1.27;;
51660;SDS011;37741;49.748;8.490;2022-09-03T09:42:24;3.30;;;0.88;;
51660;SDS011;37741;49.748;8.490;2022-09-03T09:44:51;3.58;;;1.27;;
51660;SDS011;37741;49.748;8.490;2022-09-03T09:47:27;2.65;;;1.40;;
51660;SDS011;37741;49.748;8.490;2022-09-03T09:49:57;3.75;;;1.45;;
51660;SDS011;37741;49.748;8.490;2022-09-03T09:52:25;2.25;;;1.15;;
51660;SDS011;37741;49.748;8.490;2022-09-03T09:55:04;2.03;;;0.98;;
51660;SDS011;37741;49.748;8.490;2022-09-03T09:57:34;2.08;;;1.00;;
51660;SDS011;37741;49.748;8.490;2022-09-03T10:00:10;3.15;;;1.30;;
51660;SDS011;37741;49.748;8.490;2022-09-03T10:02:38;2.78;;;1.27;;
51660;SDS011;37741;49.748;8.490;2022-09-03T10:05:14;2.90;;;1.30;;
51660;SDS011;37741;49.748;8.490;2022-09-03T10:07:53;4.38;;;1.35;;
51660;SDS011;37741;49.748;8.490;2022-09-03T10:10:23;3.90;;;1.38;;
51660;SDS011;37741;49.748;8.490;2022-09-03T10:13:11;3.20;;;1.00;;
51660;SDS011;37741;49.748;8.490;2022-09-03T10:15:41;2.63;;;1.27;;
51660;SDS011;37741;49.748;8.490;2022-09-03T10:23:58;2.28;;;1.42;;
51660;SDS011;37741;49.748;8.490;2022-09-03T10:26:26;4.10;;;1.10;;
51660;SDS011;37741;49.748;8.490;2022-09-03T10:28:59;2.25;;;1.40;;
51660;SDS011;37741;49.748;8.490;2022-09-03T10:34:00;2.55;;;1.40;;
51660;SDS011;37741;49.748;8.490;2022-09-03T10:36:38;5.10;;;2.10;;
51660;SDS011;37741;49.748;8.490;2022-09-03T10:39:21;2.17;;;1.25;;
51660;SDS011;37741;49.748;8.490;2022-09-03T10:44:54;3.92;;;1.90;;
51660;SDS011;37741;49.748;8.490;2022-09-03T10:47:52;2.72;;;1.73;;
51660;SDS011;37741;49.748;8.490;2022-09-03T10:50:48;2.30;;;1.60;;
51660;SDS011;37741;49.748;8.490;2022-09-03T10:56:12;2.63;;;1.42;;
51660;SDS011;37741;49.748;8.490;2022-09-03T11:04:19;3.53;;;1.65;;
51660;SDS011;37741;49.748;8.490;2022-09-03T11:07:06;3.08;;;2.03;;
51660;SDS011;37741;49.748;8.490;2022-09-03T11:09:43;3.17;;;2.33;;
51660;SDS011;37741;49.748;8.490;2022-09-03T11:12:17;3.88;;;3.15;;
51660;SDS011;37741;49.748;8.490;2022-09-03T11:15:12;4.93;;;3.60;;
51660;SDS011;37741;49.748;8.490;2022-09-03T11:18:03;3.92;;;3.28;;
51660;SDS011;37741;49.748;8.490;2022-09-03T11:20:42;4.80;;;2.58;;
51660;SDS011;37741;49.748;8.490;2022-09-03T11:23:09;6.28;;;4.03;;
51660;SDS011;37741;49.748;8.490;2022-09-03T11:25:40;4.43;;;2.95;;
51660;SDS011;37741;49.748;8.490;2022-09-03T11:33:50;4.63;;;3.20;;
51660;SDS011;37741;49.748;8.490;2022-09-03T11:36:34;4.07;;;3.33;;
51660;SDS011;37741;49.748;8.490;2022-09-03T11:41:59;3.08;;;2.38;;
51660;SDS011;37741;49.748;8.490;2022-09-03T11:44:34;3.72;;;2.65;;
51660;SDS011;37741;49.748;8.490;2022-09-03T11:47:24;5.15;;;3.47;;
51660;SDS011;37741;49.748;8.490;2022-09-03T11:50:07;3.80;;;3.00;;
51660;SDS011;37741;49.748;8.490;2022-09-03T11:53:05;3.55;;;2.65;;
51660;SDS011;37741;49.748;8.490;2022-09-03T11:55:54;3.85;;;2.95;;
51660;SDS011;37741;49.748;8.490;2022-09-03T11:58:30;3.50;;;2.60;;
51660;SDS011;37741;49.748;8.490;2022-09-03T12:00:59;3.95;;;3.47;;
51660;SDS011;37741;49.748;8.490;2022-09-03T12:03:29;3.22;;;2.60;;
51660;SDS011;37741;49.748;8.490;2022-09-03T12:14:22;5.43;;;2.72;;
51660;SDS011;37741;49.748;8.490;2022-09-03T12:17:24;3.25;;;2.42;;
51660;SDS011;37741;49.748;8.490;2022-09-03T12:19:55;3.88;;;2.47;;
51660;SDS011;37741;49.748;8.490;2022-09-03T12:22:26;2.45;;;2.00;;
51660;SDS011;37741;49.748;8.490;2022-09-03T12:24:54;3.35;;;2.45;;
51660;SDS011;37741;49.748;8.490;2022-09-03T12:27:21;2.83;;;2.35;;
51660;SDS011;37741;49.748;8.490;2022-09-03T12:29:58;3.00;;;2.28;;
51660;SDS011;37741;49.748;8.490;2022-09-03T12:32:27;3.95;;;2.53;;
51660;SDS011;37741;49.748;8.490;2022-09-03T12:37:50;2.58;;;2.20;;
51660;SDS011;37741;49.748;8.490;2022-09-03T12:40:23;2.63;;;2.00;;
51660;SDS011;37741;49.748;8.490;2022-09-03T12:42:51;3.00;;;2.35;;
51660;SDS011;37741;49.748;8.490;2022-09-03T12:45:19;2.28;;;1.77;;
51660;SDS011;37741;49.748;8.490;2022-09-03T12:47:46;3.50;;;2.22;;
51660;SDS011;37741;49.748;8.490;2022-09-03T12:50:13;2.92;;;2.58;;
51660;SDS011;37741;49.748;8.490;2022-09-03T12:52:44;3.05;;;1.80;;
51660;SDS011;37741;49.748;8.490;2022-09-03T13:00:23;4.38;;;1.60;;
51660;SDS011;37741;49.748;8.490;2022-09-03T13:05:21;3.20;;;2.13;;
51660;SDS011;37741;49.748;8.490;2022-09-03T13:08:00;2.97;;;2.22;;
51660;SDS011;37741;49.748;8.490;2022-09-03T13:10:33;3.78;;;2.22;;
51660;SDS011;37741;49.748;8.490;2022-09-03T13:15:59;4.10;;;2.38;;
51660;SDS011;37741;49.748;8.490;2022-09-03T13:19:08;3.15;;;2.10;;
51660;SDS011;37741;49.748;8.490;2022-09-03T13:21:49;2.92;;;2.03;;
51660;SDS011;37741;49.748;8.490;2022-09-03T13:30:18;2.53;;;1.80;;
51660;SDS011;37741;49.748;8.490;2022-09-03T13:38:18;5.68;;;2.00;;
51660;SDS011;37741;49.748;8.490;2022-09-03T13:41:15;18.05;;;2.00;;
51660;SDS011;37741;49.748;8.490;2022-09-03T13:46:29;3.83;;;1.90;;
51660;SDS011;37741;49.748;8.490;2022-09-03T13:53:05;8.43;;;1.70;;
51660;SDS011;37741;49.748;8.490;2022-09-03T13:55:20;2.78;;;1.40;;
51660;SDS011;37741;49.748;8.490;2022-09-03T14:03:20;4.47;;;2.00;;
51660;SDS011;37741;49.748;8.490;2022-09-03T14:06:10;8.75;;;2.10;;
51660;SDS011;37741;49.748;8.490;2022-09-03T14:09:08;4.35;;;1.50;;
51660;SDS011;37741;49.748;8.490;2022-09-03T14:14:29;4.40;;;1.60;;
51660;SDS011;37741;49.748;8.490;2022-09-03T14:17:09;4.03;;;1.95;;
51660;SDS011;37741;49.748;8.490;2022-09-03T14:19:38;4.93;;;1.58;;
51660;SDS011;37741;49.748;8.490;2022-09-03T14:22:41;2.92;;;1.50;;
51660;SDS011;37741;49.748;8.490;2022-09-03T14:25:18;2.65;;;1.50;;
51660;SDS011;37741;49.748;8.490;2022-09-03T14:27:46;3.47;;;1.40;;
51660;SDS011;37741;49.748;8.490;2022-09-03T14:32:58;3.40;;;1.60;;
51660;SDS011;37741;49.748;8.490;2022-09-03T14:35:49;3.08;;;1.50;;
51660;SDS011;37741;49.748;8.490;2022-09-03T14:55:33;2.92;;;1.80;;
51660;SDS011;37741;49.748;8.490;2022-09-03T14:58:38;3.53;;;1.65;;
51660;SDS011;37741;49.748;8.490;2022-09-03T15:01:11;2.97;;;1.70;;
51660;SDS011;37741;49.748;8.490;2022-09-03T15:06:50;2.03;;;1.15;;
51660;SDS011;37741;49.748;8.490;2022-09-03T15:12:28;2.65;;;1.20;;
51660;SDS011;37741;49.748;8.490;2022-09-03T15:15:04;3.22;;;1.25;;
51660;SDS011;37741;49.748;8.490;2022-09-03T15:29:08;2.13;;;1.38;;
51660;SDS011;37741;49.748;8.490;2022-09-03T15:31:57;1.70;;;1.08;;
51660;SDS011;37741;49.748;8.490;2022-09-03T15:35:03;2.65;;;1.50;;
51660;SDS011;37741;49.748;8.490;2022-09-03T15:37:35;3.05;;;1.58;;
51660;SDS011;37741;49.748;8.490;2022-09-03T15:42:57;1.80;;;1.30;;
51660;SDS011;37741;49.748;8.490;2022-09-03T15:45:38;2.30;;;1.10;;
51660;SDS011;37741;49.748;8.490;2022-09-03T15:48:18;1.98;;;1.00;;
51660;SDS011;37741;49.748;8.490;2022-09-03T15:53:33;1.92;;;1.27;;
51660;SDS011;37741;49.748;8.490;2022-09-03T16:02:15;2.30;;;1.50;;
51660;SDS011;37741;49.748;8.490;2022-09-03T16:05:01;2.55;;;1.63;;
51660;SDS011;37741;49.748;8.490;2022-09-03T16:10:51;2.95;;;1.58;;
51660;SDS011;37741;49.748;8.490;2022-09-03T16:13:37;5.75;;;1.65;;
51660;SDS011;37741;49.748;8.490;2022-09-03T16:16:10;2.28;;;1.40;;
51660;SDS011;37741;49.748;8.490;2022-09-03T16:22:37;2.47;;;1.40;;
51660;SDS011;37741;49.748;8.490;2022-09-03T16:33:18;3.03;;;1.77;;
51660;SDS011;37741;49.748;8.490;2022-09-03T16:35:56;3.25;;;1.67;;
51660;SDS011;37741;49.748;8.490;2022-09-03T16:38:46;2.38;;;1.52;;
51660;SDS011;37741;49.748;8.490;2022-09-03T16:41:35;3.35;;;2.03;;
51660;SDS011;37741;49.748;8.490;2022-09-03T16:47:11;2.30;;;1.25;;
51660;SDS011;37741;49.748;8.490;2022-09-03T16:49:53;2.60;;;1.60;;
51660;SDS011;37741;49.748;8.490;2022-09-03T17:22:31;2.03;;;1.15;;
51660;SDS011;37741;49.748;8.490;2022-09-03T17:25:47;3.10;;;1.50;;
51660;SDS011;37741;49.748;8.490;2022-09-03T17:33:54;2.38;;;1.23;;
51660;SDS011;37741;49.748;8.490;2022-09-03T17:36:27;2.10;;;0.90;;
51660;SDS011;37741;49.748;8.490;2022-09-03T17:52:40;2.72;;;1.02;;
51660;SDS011;37741;49.748;8.490;2022-09-03T17:58:28;1.73;;;0.80;;
51660;SDS011;37741;49.748;8.490;2022-09-03T18:14:58;2.22;;;1.00;;
51660;SDS011;37741;49.748;8.490;2022-09-03T18:20:21;3.28;;;0.75;;
51660;SDS011;37741;49.748;8.490;2022-09-03T18:26:25;1.20;;;0.60;;
51660;SDS011;37741;49.748;8.490;2022-09-03T18:32:17;2.22;;;0.60;;
51660;SDS011;37741;49.748;8.490;2022-09-03T18:35:01;1.55;;;0.65;;
51660;SDS011;37741;49.748;8.490;2022-09-03T18:37:45;1.83;;;0.70;;
51660;SDS011;37741;49.748;8.490;2022-09-03T18:40:37;1.80;;;0.90;;
51660;SDS011;37741;49.748;8.490;2022-09-03T18:49:41;2.25;;;0.60;;
51660;SDS011;37741;49.748;8.490;2022-09-03T18:52:43;2.10;;;1.40;;
51660;SDS011;37741;49.748;8.490;2022-09-03T19:01:51;1.85;;;0.75;;
51660;SDS011;37741;49.748;8.490;2022-09-03T19:05:00;1.97;;;0.93;;
51660;SDS011;37741;49.748;8.490;2022-09-03T19:17:58;2.45;;;1.00;;
51660;SDS011;37741;49.748;8.490;2022-09-03T19:20:47;1.67;;;0.80;;
51660;SDS011;37741;49.748;8.490;2022-09-03T19:23:43;2.25;;;1.20;;
51660;SDS011;37741;49.748;8.490;2022-09-03T19:29:34;1.10;;;0.68;;
51660;SDS011;37741;49.748;8.490;2022-09-03T19:33:03;3.10;;;1.02;;
51660;SDS011;37741;49.748;8.490;2022-09-03T19:38:48;1.55;;;0.98;;
51660;SDS011;37741;49.748;8.490;2022-09-03T19:41:52;2.15;;;0.88;;
51660;SDS011;37741;49.748;8.490;2022-09-03T19:48:16;1.73;;;0.80;;
51660;SDS011;37741;49.748;8.490;2022-09-03T19:50:48;1.60;;;1.00;;
51660;SDS011;37741;49.748;8.490;2022-09-03T19:53:53;1.63;;;0.90;;
51660;SDS011;37741;49.748;8.490;2022-09-03T19:56:41;1.80;;;1.05;;
51660;SDS011;37741;49.748;8.490;2022-09-03T19:59:27;1.85;;;1.02;;
51660;SDS011;37741;49.748;8.490;2022-09-03T20:02:14;1.40;;;1.00;;
51660;SDS011;37741;49.748;8.490;2022-09-03T20:05:00;2.83;;;1.35;;
51660;SDS011;37741;49.748;8.490;2022-09-03T20:07:46;1.88;;;1.10;;
51660;SDS011;37741;49.748;8.490;2022-09-03T20:10:34;2.28;;;1.00;;
51660;SDS011;37741;49.748;8.490;2022-09-03T20:18:41;2.10;;;0.90;;
51660;SDS011;37741;49.748;8.490;2022-09-03T20:30:33;3.92;;;1.10;;
51660;SDS011;37741;49.748;8.490;2022-09-03T20:35:37;3.33;;;0.70;;
51660;SDS011;37741;49.748;8.490;2022-09-03T20:38:49;3.75;;;1.05;;
51660;SDS011;37741;49.748;8.490;2022-09-03T20:41:36;8.55;;;1.10;;
51660;SDS011;37741;49.748;8.490;2022-09-03T20:46:59;2.97;;;0.90;;
51660;SDS011;37741;49.748;8.490;2022-09-03T20:49:59;1.95;;;0.90;;
51660;SDS011;37741;49.748;8.490;2022-09-03T20:52:49;2.70;;;1.00;;
51660;SDS011;37741;49.748;8.490;2022-09-03T20:55:22;1.67;;;0.90;;
51660;SDS011;37741;49.748;8.490;2022-09-03T21:00:38;2.05;;;0.80;;
51660;SDS011;37741;49.748;8.490;2022-09-03T21:03:14;2.92;;;1.30;;
51660;SDS011;37741;49.748;8.490;2022-09-03T21:05:46;2.05;;;0.73;;
51660;SDS011;37741;49.748;8.490;2022-09-03T21:19:20;2.25;;;1.20;;
51660;SDS011;37741;49.748;8.490;2022-09-03T21:22:26;1.85;;;0.88;;
51660;SDS011;37741;49.748;8.490;2022-09-03T21:25:04;1.92;;;0.85;;
51660;SDS011;37741;49.748;8.490;2022-09-03T21:27:44;1.80;;;0.95;;
51660;SDS011;37741;49.748;8.490;2022-09-03T21:30:17;2.10;;;1.00;;
51660;SDS011;37741;49.748;8.490;2022-09-03T21:35:37;2.42;;;0.93;;
51660;SDS011;37741;49.748;8.490;2022-09-03T21:40:37;1.50;;;0.88;;